sensor_id;sensor_type;location;lat;lon;timestamp;P1;durP1;ratioP1;P2;durP2;ratioP2
24901;SDS011;31328;51.402;0.016;2023-03-19T00:02:19;4.03;;;1.97;;
24901;SDS011;31328;51.402;0.016;2023-03-19T00:04:46;4.43;;;2.07;;
24901;SDS011;31328;51.402;0.016;2023-03-19T00:07:13;2.77;;;1.77;;
24901;SDS011;31328;51.402;0.016;2023-03-19T00:09:41;5.00;;;1.87;;
24901;SDS011;31328;51.402;0.016;2023-03-19T00:12:09;5.93;;;2.40;;
24901;SDS011;31328;51.402;0.016;2023-03-19T00:14:36;5.73;;;1.97;;
24901;SDS011;31328;51.402;0.016;2023-03-19T00:17:03;3.57;;;1.87;;
24901;SDS011;31328;51.402;0.016;2023-03-19T00:19:29;3.30;;;1.63;;
24901;SDS011;31328;51.402;0.016;2023-03-19T00:21:56;4.17;;;2.20;;
24901;SDS011;31328;51.402;0.016;2023-03-19T00:24:23;3.97;;;2.10;;
24901;SDS011;31328;51.402;0.016;2023-03-19T00:26:50;3.67;;;1.67;;
24901;SDS011;31328;51.402;0.016;2023-03-19T00:29:18;4.33;;;1.97;;
24901;SDS011;31328;51.402;0.016;2023-03-19T00:31:44;4.07;;;2.03;;
24901;SDS011;31328;51.402;0.016;2023-03-19T00:34:11;4.50;;;2.33;;
24901;SDS011;31328;51.402;0.016;2023-03-19T00:36:38;6.73;;;2.40;;
24901;SDS011;31328;51.402;0.016;2023-03-19T00:39:05;4.10;;;2.67;;
24901;SDS011;31328;51.402;0.016;2023-03-19T00:41:34;3.53;;;1.80;;
24901;SDS011;31328;51.402;0.016;2023-03-19T00:44:00;6.10;;;2.63;;
24901;SDS011;31328;51.402;0.016;2023-03-19T00:46:29;2.90;;;1.97;;
24901;SDS011;31328;51.402;0.016;2023-03-19T00:48:55;2.97;;;2.00;;
24901;SDS011;31328;51.402;0.016;2023-03-19T00:51:23;6.57;;;2.30;;
24901;SDS011;31328;51.402;0.016;2023-03-19T00:53:50;6.13;;;2.50;;
24901;SDS011;31328;51.402;0.016;2023-03-19T00:56:17;4.13;;;2.20;;
24901;SDS011;31328;51.402;0.016;2023-03-19T00:58:45;4.20;;;2.30;;
24901;SDS011;31328;51.402;0.016;2023-03-19T01:01:13;3.80;;;2.10;;
24901;SDS011;31328;51.402;0.016;2023-03-19T01:03:42;3.87;;;2.00;;
24901;SDS011;31328;51.402;0.016;2023-03-19T01:06:10;4.63;;;2.23;;
24901;SDS011;31328;51.402;0.016;2023-03-19T01:08:37;4.30;;;2.23;;
24901;SDS011;31328;51.402;0.016;2023-03-19T01:11:13;3.97;;;2.23;;
24901;SDS011;31328;51.402;0.016;2023-03-19T01:13:42;3.10;;;1.70;;
24901;SDS011;31328;51.402;0.016;2023-03-19T01:16:08;5.30;;;2.27;;
24901;SDS011;31328;51.402;0.016;2023-03-19T01:18:35;2.70;;;1.73;;
24901;SDS011;31328;51.402;0.016;2023-03-19T01:21:02;5.20;;;2.20;;
24901;SDS011;31328;51.402;0.016;2023-03-19T01:23:30;4.97;;;2.57;;
24901;SDS011;31328;51.402;0.016;2023-03-19T01:25:57;4.53;;;2.67;;
24901;SDS011;31328;51.402;0.016;2023-03-19T01:28:25;3.63;;;2.33;;
24901;SDS011;31328;51.402;0.016;2023-03-19T01:30:52;4.00;;;2.10;;
24901;SDS011;31328;51.402;0.016;2023-03-19T01:33:41;4.87;;;2.87;;
24901;SDS011;31328;51.402;0.016;2023-03-19T01:36:16;4.80;;;2.13;;
24901;SDS011;31328;51.402;0.016;2023-03-19T01:38:58;5.93;;;2.77;;
24901;SDS011;31328;51.402;0.016;2023-03-19T01:41:24;4.40;;;2.67;;
24901;SDS011;31328;51.402;0.016;2023-03-19T01:43:54;4.97;;;2.83;;
24901;SDS011;31328;51.402;0.016;2023-03-19T01:46:38;4.30;;;2.45;;
24901;SDS011;31328;51.402;0.016;2023-03-19T01:49:24;4.67;;;3.03;;
24901;SDS011;31328;51.402;0.016;2023-03-19T01:52:12;6.07;;;2.93;;
24901;SDS011;31328;51.402;0.016;2023-03-19T01:55:03;5.20;;;3.13;;
24901;SDS011;31328;51.402;0.016;2023-03-19T01:57:47;5.78;;;4.00;;
24901;SDS011;31328;51.402;0.016;2023-03-19T02:00:43;4.30;;;3.00;;
24901;SDS011;31328;51.402;0.016;2023-03-19T02:03:10;3.50;;;2.33;;
24901;SDS011;31328;51.402;0.016;2023-03-19T02:05:43;3.53;;;1.50;;
24901;SDS011;31328;51.402;0.016;2023-03-19T02:08:14;3.23;;;2.03;;
24901;SDS011;31328;51.402;0.016;2023-03-19T02:10:42;5.13;;;1.23;;
24901;SDS011;31328;51.402;0.016;2023-03-19T02:13:11;3.67;;;1.17;;
24901;SDS011;31328;51.402;0.016;2023-03-19T02:15:38;3.07;;;1.03;;
24901;SDS011;31328;51.402;0.016;2023-03-19T02:18:04;2.13;;;1.10;;
24901;SDS011;31328;51.402;0.016;2023-03-19T02:26:22;1.40;;;1.00;;
24901;SDS011;31328;51.402;0.016;2023-03-19T02:28:57;2.80;;;1.38;;
24901;SDS011;31328;51.402;0.016;2023-03-19T02:31:29;3.70;;;2.03;;
24901;SDS011;31328;51.402;0.016;2023-03-19T02:34:00;5.03;;;1.27;;
24901;SDS011;31328;51.402;0.016;2023-03-19T02:36:41;3.15;;;1.17;;
24901;SDS011;31328;51.402;0.016;2023-03-19T02:39:14;1.23;;;1.13;;
24901;SDS011;31328;51.402;0.016;2023-03-19T02:41:45;3.28;;;1.67;;
24901;SDS011;31328;51.402;0.016;2023-03-19T02:44:13;3.77;;;1.23;;
24901;SDS011;31328;51.402;0.016;2023-03-19T02:46:42;2.97;;;1.67;;
24901;SDS011;31328;51.402;0.016;2023-03-19T02:49:08;3.03;;;0.90;;
24901;SDS011;31328;51.402;0.016;2023-03-19T02:51:35;1.83;;;0.83;;
24901;SDS011;31328;51.402;0.016;2023-03-19T02:54:02;3.60;;;1.57;;
24901;SDS011;31328;51.402;0.016;2023-03-19T02:56:29;5.73;;;1.10;;
24901;SDS011;31328;51.402;0.016;2023-03-19T02:58:56;3.60;;;1.17;;
24901;SDS011;31328;51.402;0.016;2023-03-19T03:01:22;4.00;;;1.17;;
24901;SDS011;31328;51.402;0.016;2023-03-19T03:03:49;4.77;;;1.13;;
24901;SDS011;31328;51.402;0.016;2023-03-19T03:06:16;5.13;;;2.20;;
24901;SDS011;31328;51.402;0.016;2023-03-19T03:08:42;4.20;;;1.33;;
24901;SDS011;31328;51.402;0.016;2023-03-19T03:11:09;2.83;;;0.90;;
24901;SDS011;31328;51.402;0.016;2023-03-19T03:13:36;3.90;;;1.43;;
24901;SDS011;31328;51.402;0.016;2023-03-19T03:16:03;2.03;;;0.93;;
24901;SDS011;31328;51.402;0.016;2023-03-19T03:18:29;6.90;;;1.23;;
24901;SDS011;31328;51.402;0.016;2023-03-19T03:20:56;4.57;;;1.20;;
24901;SDS011;31328;51.402;0.016;2023-03-19T03:23:22;3.60;;;1.83;;
24901;SDS011;31328;51.402;0.016;2023-03-19T03:25:49;3.53;;;1.53;;
24901;SDS011;31328;51.402;0.016;2023-03-19T03:28:17;4.37;;;1.33;;
24901;SDS011;31328;51.402;0.016;2023-03-19T03:30:44;4.50;;;1.80;;
24901;SDS011;31328;51.402;0.016;2023-03-19T03:33:12;2.50;;;1.50;;
24901;SDS011;31328;51.402;0.016;2023-03-19T03:35:38;4.40;;;1.53;;
24901;SDS011;31328;51.402;0.016;2023-03-19T03:38:05;4.77;;;1.90;;
24901;SDS011;31328;51.402;0.016;2023-03-19T03:40:31;4.63;;;1.20;;
24901;SDS011;31328;51.402;0.016;2023-03-19T03:42:59;2.90;;;1.20;;
24901;SDS011;31328;51.402;0.016;2023-03-19T03:45:26;7.57;;;1.50;;
24901;SDS011;31328;51.402;0.016;2023-03-19T03:47:52;2.73;;;1.50;;
24901;SDS011;31328;51.402;0.016;2023-03-19T03:50:19;5.97;;;2.03;;
24901;SDS011;31328;51.402;0.016;2023-03-19T03:52:47;4.90;;;1.60;;
24901;SDS011;31328;51.402;0.016;2023-03-19T03:55:13;3.90;;;1.50;;
24901;SDS011;31328;51.402;0.016;2023-03-19T03:57:40;3.57;;;1.53;;
24901;SDS011;31328;51.402;0.016;2023-03-19T04:00:06;4.20;;;1.50;;
24901;SDS011;31328;51.402;0.016;2023-03-19T04:02:39;3.10;;;1.33;;
24901;SDS011;31328;51.402;0.016;2023-03-19T04:05:08;4.60;;;1.83;;
24901;SDS011;31328;51.402;0.016;2023-03-19T04:07:35;6.37;;;1.97;;
24901;SDS011;31328;51.402;0.016;2023-03-19T04:10:03;6.40;;;1.67;;
24901;SDS011;31328;51.402;0.016;2023-03-19T04:12:30;5.87;;;1.80;;
24901;SDS011;31328;51.402;0.016;2023-03-19T04:14:57;4.67;;;1.50;;
24901;SDS011;31328;51.402;0.016;2023-03-19T04:17:24;3.70;;;1.70;;
24901;SDS011;31328;51.402;0.016;2023-03-19T04:19:50;7.50;;;1.90;;
24901;SDS011;31328;51.402;0.016;2023-03-19T04:22:17;4.80;;;2.13;;
24901;SDS011;31328;51.402;0.016;2023-03-19T04:24:43;7.67;;;1.93;;
24901;SDS011;31328;51.402;0.016;2023-03-19T04:27:10;3.93;;;1.40;;
24901;SDS011;31328;51.402;0.016;2023-03-19T04:29:38;6.50;;;1.50;;
24901;SDS011;31328;51.402;0.016;2023-03-19T04:32:04;3.67;;;1.60;;
24901;SDS011;31328;51.402;0.016;2023-03-19T04:34:32;4.10;;;1.80;;
24901;SDS011;31328;51.402;0.016;2023-03-19T04:36:59;5.87;;;2.00;;
24901;SDS011;31328;51.402;0.016;2023-03-19T04:39:26;6.40;;;1.83;;
24901;SDS011;31328;51.402;0.016;2023-03-19T04:41:53;4.13;;;1.83;;
24901;SDS011;31328;51.402;0.016;2023-03-19T04:44:29;9.03;;;2.27;;
24901;SDS011;31328;51.402;0.016;2023-03-19T04:46:59;6.27;;;2.40;;
24901;SDS011;31328;51.402;0.016;2023-03-19T04:49:27;5.60;;;2.53;;
24901;SDS011;31328;51.402;0.016;2023-03-19T04:51:56;6.47;;;1.73;;
24901;SDS011;31328;51.402;0.016;2023-03-19T04:54:23;6.83;;;2.67;;
24901;SDS011;31328;51.402;0.016;2023-03-19T04:56:50;3.20;;;1.60;;
24901;SDS011;31328;51.402;0.016;2023-03-19T04:59:20;5.77;;;1.73;;
24901;SDS011;31328;51.402;0.016;2023-03-19T05:01:47;6.90;;;2.23;;
24901;SDS011;31328;51.402;0.016;2023-03-19T05:04:19;4.97;;;1.90;;
24901;SDS011;31328;51.402;0.016;2023-03-19T05:06:46;6.97;;;2.10;;
24901;SDS011;31328;51.402;0.016;2023-03-19T05:09:13;5.27;;;1.83;;
24901;SDS011;31328;51.402;0.016;2023-03-19T05:11:39;6.87;;;2.70;;
24901;SDS011;31328;51.402;0.016;2023-03-19T05:14:14;5.17;;;1.90;;
24901;SDS011;31328;51.402;0.016;2023-03-19T05:17:01;6.80;;;2.33;;
24901;SDS011;31328;51.402;0.016;2023-03-19T05:19:37;5.60;;;2.70;;
24901;SDS011;31328;51.402;0.016;2023-03-19T05:22:07;6.37;;;2.27;;
24901;SDS011;31328;51.402;0.016;2023-03-19T05:24:33;4.17;;;1.63;;
24901;SDS011;31328;51.402;0.016;2023-03-19T05:27:01;7.83;;;2.20;;
24901;SDS011;31328;51.402;0.016;2023-03-19T05:29:59;5.40;;;2.03;;
24901;SDS011;31328;51.402;0.016;2023-03-19T05:32:56;4.27;;;1.80;;
24901;SDS011;31328;51.402;0.016;2023-03-19T05:35:33;6.50;;;1.73;;
24901;SDS011;31328;51.402;0.016;2023-03-19T05:38:04;6.40;;;1.73;;
24901;SDS011;31328;51.402;0.016;2023-03-19T05:40:30;6.07;;;1.37;;
24901;SDS011;31328;51.402;0.016;2023-03-19T05:43:04;3.50;;;0.90;;
24901;SDS011;31328;51.402;0.016;2023-03-19T05:45:31;5.93;;;1.50;;
24901;SDS011;31328;51.402;0.016;2023-03-19T05:48:03;5.87;;;1.33;;
24901;SDS011;31328;51.402;0.016;2023-03-19T05:50:37;2.87;;;1.00;;
24901;SDS011;31328;51.402;0.016;2023-03-19T05:53:17;4.63;;;1.23;;
24901;SDS011;31328;51.402;0.016;2023-03-19T05:55:54;5.53;;;1.50;;
24901;SDS011;31328;51.402;0.016;2023-03-19T05:58:21;5.27;;;1.10;;
24901;SDS011;31328;51.402;0.016;2023-03-19T06:00:48;6.07;;;1.80;;
24901;SDS011;31328;51.402;0.016;2023-03-19T06:03:16;6.90;;;1.43;;
24901;SDS011;31328;51.402;0.016;2023-03-19T06:05:47;7.50;;;2.03;;
24901;SDS011;31328;51.402;0.016;2023-03-19T06:08:31;6.93;;;1.38;;
24901;SDS011;31328;51.402;0.016;2023-03-19T06:11:03;4.00;;;1.50;;
24901;SDS011;31328;51.402;0.016;2023-03-19T06:13:30;3.00;;;1.03;;
24901;SDS011;31328;51.402;0.016;2023-03-19T06:15:58;4.33;;;1.03;;
24901;SDS011;31328;51.402;0.016;2023-03-19T06:18:33;10.27;;;1.77;;
24901;SDS011;31328;51.402;0.016;2023-03-19T06:21:05;6.03;;;1.07;;
24901;SDS011;31328;51.402;0.016;2023-03-19T06:23:31;6.37;;;1.07;;
24901;SDS011;31328;51.402;0.016;2023-03-19T06:26:00;5.07;;;1.20;;
24901;SDS011;31328;51.402;0.016;2023-03-19T06:28:31;4.90;;;1.30;;
24901;SDS011;31328;51.402;0.016;2023-03-19T06:30:57;4.83;;;1.07;;
24901;SDS011;31328;51.402;0.016;2023-03-19T06:33:44;4.93;;;1.30;;
24901;SDS011;31328;51.402;0.016;2023-03-19T06:36:11;8.30;;;2.40;;
24901;SDS011;31328;51.402;0.016;2023-03-19T06:38:38;6.57;;;1.60;;
24901;SDS011;31328;51.402;0.016;2023-03-19T06:41:04;4.77;;;2.17;;
24901;SDS011;31328;51.402;0.016;2023-03-19T06:43:31;3.10;;;1.20;;
24901;SDS011;31328;51.402;0.016;2023-03-19T06:46:04;3.47;;;0.90;;
24901;SDS011;31328;51.402;0.016;2023-03-19T06:48:32;3.97;;;1.10;;
24901;SDS011;31328;51.402;0.016;2023-03-19T06:50:58;3.43;;;1.07;;
24901;SDS011;31328;51.402;0.016;2023-03-19T06:53:26;10.60;;;1.67;;
24901;SDS011;31328;51.402;0.016;2023-03-19T06:55:53;5.70;;;1.50;;
24901;SDS011;31328;51.402;0.016;2023-03-19T06:58:19;3.30;;;0.93;;
24901;SDS011;31328;51.402;0.016;2023-03-19T07:00:46;6.40;;;1.47;;
24901;SDS011;31328;51.402;0.016;2023-03-19T07:03:12;5.37;;;1.70;;
24901;SDS011;31328;51.402;0.016;2023-03-19T07:05:39;3.27;;;1.13;;
24901;SDS011;31328;51.402;0.016;2023-03-19T07:08:05;4.23;;;1.10;;
24901;SDS011;31328;51.402;0.016;2023-03-19T07:10:37;6.20;;;1.20;;
24901;SDS011;31328;51.402;0.016;2023-03-19T07:13:04;4.67;;;1.30;;
24901;SDS011;31328;51.402;0.016;2023-03-19T07:15:30;10.20;;;1.60;;
24901;SDS011;31328;51.402;0.016;2023-03-19T07:17:57;6.73;;;1.13;;
24901;SDS011;31328;51.402;0.016;2023-03-19T07:20:24;4.97;;;1.30;;
24901;SDS011;31328;51.402;0.016;2023-03-19T07:22:50;3.70;;;1.10;;
24901;SDS011;31328;51.402;0.016;2023-03-19T07:25:17;3.30;;;1.10;;
24901;SDS011;31328;51.402;0.016;2023-03-19T07:27:43;3.00;;;1.00;;
24901;SDS011;31328;51.402;0.016;2023-03-19T07:30:10;3.73;;;1.10;;
24901;SDS011;31328;51.402;0.016;2023-03-19T07:32:38;5.63;;;1.30;;
24901;SDS011;31328;51.402;0.016;2023-03-19T07:35:05;11.93;;;2.37;;
24901;SDS011;31328;51.402;0.016;2023-03-19T07:37:32;4.37;;;0.97;;
24901;SDS011;31328;51.402;0.016;2023-03-19T07:39:59;7.57;;;2.13;;
24901;SDS011;31328;51.402;0.016;2023-03-19T07:42:25;3.07;;;0.90;;
24901;SDS011;31328;51.402;0.016;2023-03-19T07:44:52;2.83;;;1.17;;
24901;SDS011;31328;51.402;0.016;2023-03-19T07:47:18;8.00;;;1.93;;
24901;SDS011;31328;51.402;0.016;2023-03-19T07:49:45;6.73;;;1.60;;
24901;SDS011;31328;51.402;0.016;2023-03-19T07:52:11;9.70;;;1.80;;
24901;SDS011;31328;51.402;0.016;2023-03-19T07:54:39;4.53;;;1.43;;
24901;SDS011;31328;51.402;0.016;2023-03-19T07:57:05;3.40;;;1.30;;
24901;SDS011;31328;51.402;0.016;2023-03-19T07:59:31;5.30;;;0.90;;
24901;SDS011;31328;51.402;0.016;2023-03-19T08:01:58;4.67;;;1.00;;
24901;SDS011;31328;51.402;0.016;2023-03-19T08:04:24;3.63;;;1.03;;
24901;SDS011;31328;51.402;0.016;2023-03-19T08:06:51;5.80;;;1.87;;
24901;SDS011;31328;51.402;0.016;2023-03-19T08:09:18;5.43;;;2.63;;
24901;SDS011;31328;51.402;0.016;2023-03-19T08:11:44;3.50;;;1.40;;
24901;SDS011;31328;51.402;0.016;2023-03-19T08:14:11;4.73;;;1.20;;
24901;SDS011;31328;51.402;0.016;2023-03-19T08:16:37;6.23;;;1.67;;
24901;SDS011;31328;51.402;0.016;2023-03-19T08:19:04;9.00;;;1.50;;
24901;SDS011;31328;51.402;0.016;2023-03-19T08:21:31;4.20;;;1.77;;
24901;SDS011;31328;51.402;0.016;2023-03-19T08:23:58;5.33;;;1.60;;
24901;SDS011;31328;51.402;0.016;2023-03-19T08:26:24;4.07;;;1.33;;
24901;SDS011;31328;51.402;0.016;2023-03-19T08:28:51;4.40;;;1.77;;
24901;SDS011;31328;51.402;0.016;2023-03-19T08:31:17;4.47;;;1.37;;
24901;SDS011;31328;51.402;0.016;2023-03-19T08:33:43;4.43;;;1.20;;
24901;SDS011;31328;51.402;0.016;2023-03-19T08:36:11;6.33;;;1.40;;
24901;SDS011;31328;51.402;0.016;2023-03-19T08:38:38;6.60;;;0.90;;
24901;SDS011;31328;51.402;0.016;2023-03-19T08:41:05;3.53;;;1.00;;
24901;SDS011;31328;51.402;0.016;2023-03-19T08:43:32;3.80;;;1.10;;
24901;SDS011;31328;51.402;0.016;2023-03-19T08:46:02;7.87;;;1.77;;
24901;SDS011;31328;51.402;0.016;2023-03-19T08:48:29;6.03;;;1.97;;
24901;SDS011;31328;51.402;0.016;2023-03-19T08:50:56;6.97;;;1.77;;
24901;SDS011;31328;51.402;0.016;2023-03-19T08:53:26;5.47;;;1.10;;
24901;SDS011;31328;51.402;0.016;2023-03-19T08:55:53;4.30;;;1.57;;
24901;SDS011;31328;51.402;0.016;2023-03-19T08:58:24;9.80;;;1.47;;
24901;SDS011;31328;51.402;0.016;2023-03-19T09:00:51;5.03;;;1.43;;
24901;SDS011;31328;51.402;0.016;2023-03-19T09:03:18;6.77;;;1.63;;
24901;SDS011;31328;51.402;0.016;2023-03-19T09:05:46;5.33;;;1.53;;
24901;SDS011;31328;51.402;0.016;2023-03-19T09:08:12;3.87;;;1.27;;
24901;SDS011;31328;51.402;0.016;2023-03-19T09:10:39;5.50;;;1.20;;
24901;SDS011;31328;51.402;0.016;2023-03-19T09:13:05;4.03;;;0.87;;
24901;SDS011;31328;51.402;0.016;2023-03-19T09:15:32;6.60;;;1.70;;
24901;SDS011;31328;51.402;0.016;2023-03-19T09:17:58;4.30;;;1.43;;
24901;SDS011;31328;51.402;0.016;2023-03-19T09:20:25;6.73;;;1.10;;
24901;SDS011;31328;51.402;0.016;2023-03-19T09:22:52;3.87;;;1.37;;
24901;SDS011;31328;51.402;0.016;2023-03-19T09:25:18;5.47;;;1.20;;
24901;SDS011;31328;51.402;0.016;2023-03-19T09:27:46;5.27;;;1.77;;
24901;SDS011;31328;51.402;0.016;2023-03-19T09:30:12;8.03;;;1.90;;
24901;SDS011;31328;51.402;0.016;2023-03-19T09:32:39;4.97;;;1.33;;
24901;SDS011;31328;51.402;0.016;2023-03-19T09:35:06;3.20;;;0.70;;
24901;SDS011;31328;51.402;0.016;2023-03-19T09:37:33;5.30;;;1.20;;
24901;SDS011;31328;51.402;0.016;2023-03-19T09:40:00;6.83;;;1.73;;
24901;SDS011;31328;51.402;0.016;2023-03-19T09:42:30;3.37;;;0.90;;
24901;SDS011;31328;51.402;0.016;2023-03-19T09:45:14;4.00;;;1.13;;
24901;SDS011;31328;51.402;0.016;2023-03-19T09:47:42;6.77;;;1.20;;
24901;SDS011;31328;51.402;0.016;2023-03-19T09:50:13;3.87;;;1.23;;
24901;SDS011;31328;51.402;0.016;2023-03-19T09:57:49;4.53;;;0.87;;
24901;SDS011;31328;51.402;0.016;2023-03-19T10:00:19;5.53;;;1.80;;
24901;SDS011;31328;51.402;0.016;2023-03-19T10:02:48;3.47;;;1.30;;
24901;SDS011;31328;51.402;0.016;2023-03-19T10:11:00;3.20;;;0.80;;
24901;SDS011;31328;51.402;0.016;2023-03-19T10:13:43;3.03;;;0.90;;
24901;SDS011;31328;51.402;0.016;2023-03-19T10:16:31;2.67;;;0.90;;
24901;SDS011;31328;51.402;0.016;2023-03-19T10:19:02;3.30;;;0.80;;
24901;SDS011;31328;51.402;0.016;2023-03-19T10:21:51;3.67;;;1.10;;
24901;SDS011;31328;51.402;0.016;2023-03-19T10:24:28;2.93;;;0.80;;
24901;SDS011;31328;51.402;0.016;2023-03-19T10:27:00;2.30;;;0.80;;
24901;SDS011;31328;51.402;0.016;2023-03-19T10:29:34;4.50;;;0.80;;
24901;SDS011;31328;51.402;0.016;2023-03-19T10:34:33;4.23;;;1.00;;
24901;SDS011;31328;51.402;0.016;2023-03-19T10:37:04;2.33;;;0.80;;
24901;SDS011;31328;51.402;0.016;2023-03-19T10:39:39;3.73;;;0.80;;
24901;SDS011;31328;51.402;0.016;2023-03-19T10:42:20;2.67;;;0.83;;
24901;SDS011;31328;51.402;0.016;2023-03-19T10:44:55;3.40;;;1.10;;
24901;SDS011;31328;51.402;0.016;2023-03-19T10:47:27;1.10;;;0.80;;
24901;SDS011;31328;51.402;0.016;2023-03-19T10:49:54;2.00;;;1.77;;
24901;SDS011;31328;51.402;0.016;2023-03-19T10:52:23;3.30;;;1.47;;
24901;SDS011;31328;51.402;0.016;2023-03-19T10:54:53;2.13;;;0.80;;
24901;SDS011;31328;51.402;0.016;2023-03-19T10:57:25;1.27;;;0.73;;
24901;SDS011;31328;51.402;0.016;2023-03-19T10:59:53;1.40;;;0.70;;
24901;SDS011;31328;51.402;0.016;2023-03-19T11:02:21;4.43;;;0.60;;
24901;SDS011;31328;51.402;0.016;2023-03-19T11:10:30;2.37;;;0.60;;
24901;SDS011;31328;51.402;0.016;2023-03-19T11:13:21;4.10;;;0.80;;
24901;SDS011;31328;51.402;0.016;2023-03-19T11:15:50;3.60;;;1.00;;
24901;SDS011;31328;51.402;0.016;2023-03-19T11:18:19;1.97;;;0.87;;
24901;SDS011;31328;51.402;0.016;2023-03-19T11:20:54;1.33;;;0.68;;
24901;SDS011;31328;51.402;0.016;2023-03-19T11:23:29;0.90;;;0.50;;
24901;SDS011;31328;51.402;0.016;2023-03-19T11:26:02;1.70;;;0.83;;
24901;SDS011;31328;51.402;0.016;2023-03-19T11:28:29;1.67;;;0.80;;
24901;SDS011;31328;51.402;0.016;2023-03-19T11:31:10;1.87;;;0.93;;
24901;SDS011;31328;51.402;0.016;2023-03-19T11:48:02;2.70;;;0.70;;
24901;SDS011;31328;51.402;0.016;2023-03-19T11:50:57;8.50;;;1.23;;
24901;SDS011;31328;51.402;0.016;2023-03-19T11:53:30;3.17;;;0.80;;
24901;SDS011;31328;51.402;0.016;2023-03-19T11:56:20;1.60;;;0.70;;
24901;SDS011;31328;51.402;0.016;2023-03-19T11:59:12;3.03;;;1.63;;
24901;SDS011;31328;51.402;0.016;2023-03-19T12:02:11;3.27;;;0.87;;
24901;SDS011;31328;51.402;0.016;2023-03-19T12:05:02;5.30;;;0.80;;
24901;SDS011;31328;51.402;0.016;2023-03-19T12:10:27;1.17;;;0.60;;
24901;SDS011;31328;51.402;0.016;2023-03-19T12:15:58;1.70;;;1.00;;
24901;SDS011;31328;51.402;0.016;2023-03-19T12:18:32;2.43;;;0.90;;
24901;SDS011;31328;51.402;0.016;2023-03-19T12:24:11;5.47;;;1.13;;
24901;SDS011;31328;51.402;0.016;2023-03-19T12:27:04;3.33;;;0.70;;
24901;SDS011;31328;51.402;0.016;2023-03-19T12:35:15;7.67;;;1.27;;
24901;SDS011;31328;51.402;0.016;2023-03-19T12:37:50;2.80;;;1.37;;
24901;SDS011;31328;51.402;0.016;2023-03-19T12:43:01;3.20;;;1.60;;
24901;SDS011;31328;51.402;0.016;2023-03-19T12:45:43;1.77;;;0.90;;
24901;SDS011;31328;51.402;0.016;2023-03-19T12:48:14;2.00;;;0.90;;
24901;SDS011;31328;51.402;0.016;2023-03-19T12:50:51;2.80;;;0.68;;
24901;SDS011;31328;51.402;0.016;2023-03-19T12:56:10;3.73;;;0.80;;
24901;SDS011;31328;51.402;0.016;2023-03-19T12:58:50;1.83;;;0.57;;
24901;SDS011;31328;51.402;0.016;2023-03-19T13:02:11;2.73;;;0.77;;
24901;SDS011;31328;51.402;0.016;2023-03-19T13:04:21;3.03;;;1.10;;
24901;SDS011;31328;51.402;0.016;2023-03-19T13:06:52;3.40;;;1.00;;
24901;SDS011;31328;51.402;0.016;2023-03-19T13:09:28;1.93;;;0.90;;
24901;SDS011;31328;51.402;0.016;2023-03-19T13:12:09;3.37;;;1.20;;
24901;SDS011;31328;51.402;0.016;2023-03-19T13:15:06;3.53;;;1.00;;
24901;SDS011;31328;51.402;0.016;2023-03-19T13:20:48;6.33;;;0.90;;
24901;SDS011;31328;51.402;0.016;2023-03-19T13:23:43;1.73;;;0.90;;
24901;SDS011;31328;51.402;0.016;2023-03-19T13:26:13;2.07;;;0.90;;
24901;SDS011;31328;51.402;0.016;2023-03-19T13:31:24;2.20;;;0.80;;
24901;SDS011;31328;51.402;0.016;2023-03-19T13:39:37;1.53;;;0.80;;
24901;SDS011;31328;51.402;0.016;2023-03-19T13:52:49;2.40;;;1.17;;
24901;SDS011;31328;51.402;0.016;2023-03-19T13:57:57;3.00;;;0.77;;
24901;SDS011;31328;51.402;0.016;2023-03-19T14:03:18;2.47;;;0.80;;
24901;SDS011;31328;51.402;0.016;2023-03-19T14:05:48;1.57;;;0.50;;
24901;SDS011;31328;51.402;0.016;2023-03-19T14:08:23;5.37;;;1.07;;
24901;SDS011;31328;51.402;0.016;2023-03-19T14:10:53;2.10;;;0.60;;
24901;SDS011;31328;51.402;0.016;2023-03-19T14:13:25;3.13;;;0.90;;
24901;SDS011;31328;51.402;0.016;2023-03-19T14:16:00;3.80;;;1.20;;
24901;SDS011;31328;51.402;0.016;2023-03-19T14:18:43;3.27;;;0.80;;
24901;SDS011;31328;51.402;0.016;2023-03-19T14:21:12;1.90;;;0.80;;
24901;SDS011;31328;51.402;0.016;2023-03-19T14:23:44;2.13;;;0.80;;
24901;SDS011;31328;51.402;0.016;2023-03-19T14:26:18;2.00;;;0.80;;
24901;SDS011;31328;51.402;0.016;2023-03-19T14:28:59;1.27;;;0.90;;
24901;SDS011;31328;51.402;0.016;2023-03-19T14:36:40;2.77;;;0.93;;
24901;SDS011;31328;51.402;0.016;2023-03-19T14:39:17;3.35;;;1.08;;
24901;SDS011;31328;51.402;0.016;2023-03-19T14:41:48;3.05;;;0.93;;
24901;SDS011;31328;51.402;0.016;2023-03-19T14:49:56;2.57;;;1.00;;
24901;SDS011;31328;51.402;0.016;2023-03-19T14:55:39;2.43;;;1.30;;
24901;SDS011;31328;51.402;0.016;2023-03-19T14:58:10;3.33;;;1.37;;
24901;SDS011;31328;51.402;0.016;2023-03-19T15:00:41;2.43;;;0.90;;
24901;SDS011;31328;51.402;0.016;2023-03-19T15:06:02;1.57;;;0.90;;
24901;SDS011;31328;51.402;0.016;2023-03-19T15:08:31;1.73;;;1.00;;
24901;SDS011;31328;51.402;0.016;2023-03-19T15:11:17;3.90;;;1.20;;
24901;SDS011;31328;51.402;0.016;2023-03-19T15:16:50;5.57;;;4.30;;
24901;SDS011;31328;51.402;0.016;2023-03-19T15:19:25;2.17;;;1.63;;
24901;SDS011;31328;51.402;0.016;2023-03-19T15:22:11;1.73;;;0.70;;
24901;SDS011;31328;51.402;0.016;2023-03-19T15:24:42;2.37;;;0.93;;
24901;SDS011;31328;51.402;0.016;2023-03-19T15:27:19;1.67;;;0.90;;
24901;SDS011;31328;51.402;0.016;2023-03-19T15:29:48;4.27;;;1.27;;
24901;SDS011;31328;51.402;0.016;2023-03-19T15:32:35;2.27;;;0.73;;
24901;SDS011;31328;51.402;0.016;2023-03-19T15:35:04;5.63;;;2.50;;
24901;SDS011;31328;51.402;0.016;2023-03-19T15:37:32;6.00;;;3.20;;
24901;SDS011;31328;51.402;0.016;2023-03-19T15:40:05;4.13;;;1.53;;
24901;SDS011;31328;51.402;0.016;2023-03-19T15:42:35;1.60;;;1.13;;
24901;SDS011;31328;51.402;0.016;2023-03-19T15:45:07;2.30;;;1.10;;
24901;SDS011;31328;51.402;0.016;2023-03-19T15:47:41;3.70;;;1.47;;
24901;SDS011;31328;51.402;0.016;2023-03-19T15:50:34;3.80;;;0.93;;
24901;SDS011;31328;51.402;0.016;2023-03-19T15:53:06;1.93;;;1.17;;
24901;SDS011;31328;51.402;0.016;2023-03-19T15:55:36;2.07;;;0.97;;
24901;SDS011;31328;51.402;0.016;2023-03-19T15:58:05;4.83;;;1.00;;
24901;SDS011;31328;51.402;0.016;2023-03-19T16:00:37;3.63;;;1.10;;
24901;SDS011;31328;51.402;0.016;2023-03-19T16:03:05;3.10;;;0.97;;
24901;SDS011;31328;51.402;0.016;2023-03-19T16:05:37;3.07;;;0.90;;
24901;SDS011;31328;51.402;0.016;2023-03-19T16:08:44;1.47;;;0.97;;
24901;SDS011;31328;51.402;0.016;2023-03-19T16:14:10;3.57;;;0.90;;
24901;SDS011;31328;51.402;0.016;2023-03-19T16:17:10;2.00;;;0.50;;
24901;SDS011;31328;51.402;0.016;2023-03-19T16:19:51;2.47;;;0.70;;
24901;SDS011;31328;51.402;0.016;2023-03-19T16:22:21;1.03;;;0.80;;
24901;SDS011;31328;51.402;0.016;2023-03-19T16:24:50;2.97;;;0.70;;
24901;SDS011;31328;51.402;0.016;2023-03-19T16:27:19;1.60;;;0.60;;
24901;SDS011;31328;51.402;0.016;2023-03-19T16:29:57;2.10;;;1.10;;
24901;SDS011;31328;51.402;0.016;2023-03-19T16:35:08;1.60;;;0.60;;
24901;SDS011;31328;51.402;0.016;2023-03-19T16:37:40;3.23;;;0.60;;
24901;SDS011;31328;51.402;0.016;2023-03-19T16:45:28;1.47;;;0.50;;
24901;SDS011;31328;51.402;0.016;2023-03-19T16:47:56;2.33;;;0.70;;
24901;SDS011;31328;51.402;0.016;2023-03-19T16:50:29;2.60;;;1.07;;
24901;SDS011;31328;51.402;0.016;2023-03-19T16:53:29;2.27;;;0.60;;
24901;SDS011;31328;51.402;0.016;2023-03-19T16:55:56;1.10;;;0.77;;
24901;SDS011;31328;51.402;0.016;2023-03-19T17:01:01;0.80;;;0.40;;
24901;SDS011;31328;51.402;0.016;2023-03-19T17:03:38;1.63;;;0.50;;
24901;SDS011;31328;51.402;0.016;2023-03-19T17:06:04;1.07;;;0.50;;
24901;SDS011;31328;51.402;0.016;2023-03-19T17:08:31;1.60;;;0.60;;
24901;SDS011;31328;51.402;0.016;2023-03-19T17:10:57;1.43;;;0.60;;
24901;SDS011;31328;51.402;0.016;2023-03-19T17:13:25;1.27;;;0.47;;